Onamia, MN (56359)

8:48 PM CDT on July 27, 2016 (GMT -0500)
Cove Bay | | Change Station

Elev 1260 ft 46.12 °N, 93.62 °W | Updated 7 seconds ago

Overcast
Overcast
66.0 °F
Feels Like 66.0 °F
N
2.5
Wind Variable Wind from NNE
Gusts 2.5 mph

Today
High -- | Low -- °F
--% Chance of Precip.
Yesterday
High -- | Low -- °F
Precip. -- in
Pressure 30.01 in
Visibility 10.0 miles
Clouds Overcast 800 ft
Dew Point 63 °F
Humidity 89%
Rainfall 0.24 in
Snow Depth Not available.
5:51 AM 8:49 PM
Last Quarter, 37% visible
METAR KJMR 280134Z AUTO 03004KT 10SM OVC008 14/13 A3001 RMK AO2
Pressure 30.01 in
Visibility 10.0 miles
Clouds Overcast 800 ft
Dew Point 63 °F
Humidity 89%
Rainfall 0.24 in
Snow Depth Not available.
5:51 AM 8:49 PM
Last Quarter, 37% visible
METAR KJMR 280134Z AUTO 03004KT 10SM OVC008 14/13 A3001 RMK AO2

10-Day Weather Forecast

Almanac

Astronomy

Jul. 27, 2016 Rise Set
Actual Time
Civil Twilight
Nautical Twilight
Astronomical Twilight
Moon
Length of Visible Light
Length of Day
Tomorrow will be .
, % of the Moon is Illuminated

Today's Extremes

State Highs State Lows

Community

WunderPhotos

Upload Photos

1,928,005 photos uploaded!

WunderBlog® & News

Nearby

Air Quality

  Air Quality AQ Index Pollutant
Not available.

Snow Depth

Station Depth Elevation

Earthquake Activity

City Distance Mag. Time & Date
Minimum magnitude displayed is 2.5.

Coastal Water Temperatures

Place Temperature

Stations

Nearby Weather Stations

Station Location Temp. Windchill Dew Point Humidity Wind Precip. Elev Updated Type
                   

Watches & Warnings

There are currently no watches in effect.